Portada
Imágenes satélite Pronóstico 15 díasClimaPredicción Marítima Ciclones Rayo AeropuertosFAQ Noticias Acerca
El tiempo : Europa África América del Norte América del Sur Asia Australia-Oceanía Otros
Idiomas Contacto

Chichén Itzá, México

latitud: 20-38-30N, longitud: 088-26-58W, altitud: 31 m


METAR: MMCT 252143Z 00000KT 8SM BKN020CB 29/26 A2988 RMK 8/900 MSGTX MMMD
TAF: falta

Hora: 04:59 (10:59 UTC)

Observación

El informe se hizo hace 13 horas y 16 minutos, a las 21:43 UTC
Viento calma
Temperatura 29°C
Humedad 84%
Presión 1012 hPa
Visibilidad: 12.9 km
Cielo nuboso a una altura de 2000 ft, Cumulonimbus.

Cambiar las unidades
La información que se ofrece en estas páginas está sujeta a una cláusula de exención de responsabilidad
El tiempo : Europa África América del Norte América del Sur Asia Australia-Oceanía Otros
Imágenes satélite Pronóstico 15 díasClimaPredicción Marítima Ciclones Rayo AeropuertosFAQ Idiomas Contacto Noticias Acerca